Ana Sayfa
METAR-TAF:

METAR-TAF

Havaalanları :

Midland, Teksas, Amerika Birleşik Devletleri

Enlem: 31-56-52N, Boylam: 102-12-31W, yükseklik: 875 m

Güncel hava durumu gözlemi

Rapor saat 09:53 UTC de 1 saat ve 1 dakika önce yapıldı.
Rüzgar batı/güneybatıdan 7 kt
Sıcaklık 17°C
Nem 59%
Basınç 1015 hPa
Görüş mesafesi: 16.1 km
Açık gökyüzü

METAR: KMAF 070953Z AUTO 25007KT 10SM CLR 17/09 A2997 RMK AO2 SLP111 T01720094

Saat: 05:54 (10:54 UTC)

Tahmin

Rapor saat 05:21 UTC de 5 saat ve 33 dakika önce yapıldı.
Ayın 07'si saat 06 UTC'den ayın 08'si saat 06 UTC'ye kadar geçerli Tahmin
Rüzgar güneybatıdan 9 kt
Görüş mesafesi: 10 km
20000 ft yükseklikte parçalı çok bulutlu
Ayın 07'si saat 1400 UTC'den
Rüzgar batı/güneybatıdan 8 kt
Görüş mesafesi: 10 km
25000 ft yükseklikte parçalı bulutlu

TAF: KMAF 070521Z 0706/0806 22009KT P6SM BKN200 FM071400 24008KT P6SM SCT250

4.000'den fazla havaalanı için hava durumu gözlemleri ve tahminleri (METAR ve TAF raporları).

Kullanılabilir istasyonlar harita üzerinde sarı ve kırmızı noktalarla gösterilir.

İstasyonun adını görmek için fareyi noktanın üzerinde gezdirin.

Sonrasında hava gözlem ve tahminlerini görmek için tıklayın.

Haritayı değiştirmek için: yaklaştırmak için siyah artı işaretli yeşil düğmeye ve uzaklaştırmak için de eksi işaretli düğmeye hızla tıklayın; bitişik haritalar için yeşil okları kullanın.


METAR-TAF: